sensor_id;sensor_type;location;lat;lon;timestamp;pressure;altitude;pressure_sealevel;temperature;humidity
75699;BME280;64313;51.018;13.742;2022-12-24T00:02:09;98406.97;;;9.22;87.36
75699;BME280;64313;51.018;13.742;2022-12-24T00:04:35;98404.84;;;9.24;87.30
75699;BME280;64313;51.018;13.742;2022-12-24T00:07:00;98423.09;;;9.27;87.15
75699;BME280;64313;51.018;13.742;2022-12-24T00:09:25;98421.84;;;9.30;86.88
75699;BME280;64313;51.018;13.742;2022-12-24T00:11:51;98417.31;;;9.30;86.80
75699;BME280;64313;51.018;13.742;2022-12-24T00:14:16;98413.84;;;9.30;87.16
75699;BME280;64313;51.018;13.742;2022-12-24T00:16:41;98428.78;;;9.31;86.38
75699;BME280;64313;51.018;13.742;2022-12-24T00:19:06;98440.06;;;9.33;86.42
75699;BME280;64313;51.018;13.742;2022-12-24T00:21:32;98443.06;;;9.37;85.52
75699;BME280;64313;51.018;13.742;2022-12-24T00:23:57;98440.19;;;9.38;85.76
75699;BME280;64313;51.018;13.742;2022-12-24T00:26:22;98449.59;;;9.41;85.68
75699;BME280;64313;51.018;13.742;2022-12-24T00:28:48;98447.53;;;9.43;85.80
75699;BME280;64313;51.018;13.742;2022-12-24T00:31:16;98452.41;;;9.46;85.76
75699;BME280;64313;51.018;13.742;2022-12-24T00:33:42;98447.88;;;9.46;85.58
75699;BME280;64313;51.018;13.742;2022-12-24T00:36:09;98448.69;;;9.47;85.78
75699;BME280;64313;51.018;13.742;2022-12-24T00:38:34;98457.75;;;9.46;85.65
75699;BME280;64313;51.018;13.742;2022-12-24T00:41:00;98458.34;;;9.48;85.83
75699;BME280;64313;51.018;13.742;2022-12-24T00:43:28;98454.84;;;9.47;86.08
75699;BME280;64313;51.018;13.742;2022-12-24T00:45:54;98454.28;;;9.45;85.85
75699;BME280;64313;51.018;13.742;2022-12-24T00:48:19;98448.34;;;9.43;86.16
75699;BME280;64313;51.018;13.742;2022-12-24T00:50:44;98442.19;;;9.43;85.92
75699;BME280;64313;51.018;13.742;2022-12-24T00:53:10;98454.47;;;9.44;85.73
75699;BME280;64313;51.018;13.742;2022-12-24T00:55:35;98463.53;;;9.43;85.65
75699;BME280;64313;51.018;13.742;2022-12-24T00:58:01;98466.22;;;9.43;85.15
75699;BME280;64313;51.018;13.742;2022-12-24T01:00:26;98454.94;;;9.41;84.96
75699;BME280;64313;51.018;13.742;2022-12-24T01:02:51;98465.59;;;9.41;84.10
75699;BME280;64313;51.018;13.742;2022-12-24T01:05:17;98462.94;;;9.41;83.63
75699;BME280;64313;51.018;13.742;2022-12-24T01:07:45;98469.88;;;9.42;83.73
75699;BME280;64313;51.018;13.742;2022-12-24T01:10:12;98476.47;;;9.39;83.53
75699;BME280;64313;51.018;13.742;2022-12-24T01:12:38;98462.34;;;9.39;83.55
75699;BME280;64313;51.018;13.742;2022-12-24T01:15:04;98476.47;;;9.39;83.52
75699;BME280;64313;51.018;13.742;2022-12-24T01:17:31;98479.97;;;9.40;82.77
75699;BME280;64313;51.018;13.742;2022-12-24T01:19:57;98484.28;;;9.41;82.52
75699;BME280;64313;51.018;13.742;2022-12-24T01:22:22;98499.81;;;9.44;82.50
75699;BME280;64313;51.018;13.742;2022-12-24T01:24:47;98498.78;;;9.45;82.22
75699;BME280;64313;51.018;13.742;2022-12-24T01:27:13;98506.56;;;9.46;82.32
75699;BME280;64313;51.018;13.742;2022-12-24T01:29:38;98506.34;;;9.48;81.97
75699;BME280;64313;51.018;13.742;2022-12-24T01:32:03;98514.38;;;9.48;82.07
75699;BME280;64313;51.018;13.742;2022-12-24T01:34:29;98528.28;;;9.50;81.46
75699;BME280;64313;51.018;13.742;2022-12-24T01:36:54;98530.13;;;9.49;81.29
75699;BME280;64313;51.018;13.742;2022-12-24T01:39:19;98536.06;;;9.51;81.05
75699;BME280;64313;51.018;13.742;2022-12-24T01:41:45;98521.69;;;9.52;81.41
75699;BME280;64313;51.018;13.742;2022-12-24T01:44:31;98515.09;;;9.55;81.42
75699;BME280;64313;51.018;13.742;2022-12-24T01:49:29;98526.59;;;9.56;81.14
75699;BME280;64313;51.018;13.742;2022-12-24T01:51:58;98528.44;;;9.55;81.69
75699;BME280;64313;51.018;13.742;2022-12-24T01:54:34;98541.78;;;9.55;81.45
75699;BME280;64313;51.018;13.742;2022-12-24T01:57:39;98548.94;;;9.54;81.56
75699;BME280;64313;51.018;13.742;2022-12-24T02:00:08;98556.16;;;9.54;81.69
75699;BME280;64313;51.018;13.742;2022-12-24T02:02:35;98562.72;;;9.51;82.10
75699;BME280;64313;51.018;13.742;2022-12-24T02:05:07;98562.72;;;9.51;82.12
75699;BME280;64313;51.018;13.742;2022-12-24T02:07:33;98572.81;;;9.49;82.30
75699;BME280;64313;51.018;13.742;2022-12-24T02:09:59;98566.22;;;9.52;82.32
75699;BME280;64313;51.018;13.742;2022-12-24T02:12:28;98563.38;;;9.47;82.82
75699;BME280;64313;51.018;13.742;2022-12-24T02:14:55;98567.09;;;9.46;82.83
75699;BME280;64313;51.018;13.742;2022-12-24T02:17:34;98570.22;;;9.43;82.51
75699;BME280;64313;51.018;13.742;2022-12-24T02:28:58;98570.44;;;9.41;82.02
75699;BME280;64313;51.018;13.742;2022-12-24T02:34:13;98585.19;;;9.44;81.44
75699;BME280;64313;51.018;13.742;2022-12-24T02:36:48;98599.31;;;9.44;81.20
75699;BME280;64313;51.018;13.742;2022-12-24T02:39:44;98590.88;;;9.47;81.26
75699;BME280;64313;51.018;13.742;2022-12-24T02:42:15;98597.84;;;9.48;81.49
75699;BME280;64313;51.018;13.742;2022-12-24T02:44:58;98604.00;;;9.49;81.46
75699;BME280;64313;51.018;13.742;2022-12-24T02:47:26;98608.31;;;9.50;81.39
75699;BME280;64313;51.018;13.742;2022-12-24T02:49:53;98604.81;;;9.49;81.64
75699;BME280;64313;51.018;13.742;2022-12-24T02:55:06;98618.38;;;9.48;81.73
75699;BME280;64313;51.018;13.742;2022-12-24T03:00:53;98627.41;;;9.47;81.67
75699;BME280;64313;51.018;13.742;2022-12-24T03:03:48;98628.44;;;9.46;81.99
75699;BME280;64313;51.018;13.742;2022-12-24T03:06:32;98625.78;;;9.46;81.77
75699;BME280;64313;51.018;13.742;2022-12-24T03:09:13;98632.97;;;9.45;82.00
75699;BME280;64313;51.018;13.742;2022-12-24T03:11:49;98629.72;;;9.43;82.19
75699;BME280;64313;51.018;13.742;2022-12-24T03:14:18;98639.13;;;9.46;81.94
75699;BME280;64313;51.018;13.742;2022-12-24T03:16:44;98635.66;;;9.45;81.59
75699;BME280;64313;51.018;13.742;2022-12-24T03:19:10;98645.06;;;9.48;81.54
75699;BME280;64313;51.018;13.742;2022-12-24T03:21:38;98640.75;;;9.47;81.78
75699;BME280;64313;51.018;13.742;2022-12-24T03:24:04;98641.78;;;9.46;81.66
75699;BME280;64313;51.018;13.742;2022-12-24T03:26:31;98646.06;;;9.47;81.48
75699;BME280;64313;51.018;13.742;2022-12-24T03:28:57;98645.06;;;9.48;81.51
75699;BME280;64313;51.018;13.742;2022-12-24T03:31:22;98650.41;;;9.48;81.59
75699;BME280;64313;51.018;13.742;2022-12-24T03:33:49;98638.69;;;9.49;81.81
75699;BME280;64313;51.018;13.742;2022-12-24T03:36:14;98648.53;;;9.48;81.85
75699;BME280;64313;51.018;13.742;2022-12-24T03:38:39;98650.59;;;9.46;81.83
75699;BME280;64313;51.018;13.742;2022-12-24T03:41:05;98665.78;;;9.46;81.93
75699;BME280;64313;51.018;13.742;2022-12-24T03:43:30;98652.47;;;9.46;81.96
75699;BME280;64313;51.018;13.742;2022-12-24T03:45:56;98659.41;;;9.47;81.80
75699;BME280;64313;51.018;13.742;2022-12-24T03:48:21;98648.97;;;9.45;81.73
75699;BME280;64313;51.018;13.742;2022-12-24T03:50:47;98652.47;;;9.46;81.73
75699;BME280;64313;51.018;13.742;2022-12-24T03:53:12;98663.13;;;9.46;81.35
75699;BME280;64313;51.018;13.742;2022-12-24T03:55:38;98660.47;;;9.46;81.45
75699;BME280;64313;51.018;13.742;2022-12-24T03:58:03;98665.78;;;9.46;81.67
75699;BME280;64313;51.018;13.742;2022-12-24T04:00:29;98671.34;;;9.44;81.76
75699;BME280;64313;51.018;13.742;2022-12-24T04:02:54;98665.41;;;9.42;81.91
75699;BME280;64313;51.018;13.742;2022-12-24T04:05:20;98670.31;;;9.45;81.46
75699;BME280;64313;51.018;13.742;2022-12-24T04:07:45;98674.81;;;9.45;81.63
75699;BME280;64313;51.018;13.742;2022-12-24T04:10:11;98694.31;;;9.45;81.36
75699;BME280;64313;51.018;13.742;2022-12-24T04:12:37;98684.69;;;9.44;81.46
75699;BME280;64313;51.018;13.742;2022-12-24T04:15:03;98692.69;;;9.44;81.21
75699;BME280;64313;51.018;13.742;2022-12-24T04:17:28;98695.75;;;9.48;80.77
75699;BME280;64313;51.018;13.742;2022-12-24T04:19:54;98699.81;;;9.50;80.57
75699;BME280;64313;51.018;13.742;2022-12-24T04:22:19;98699.00;;;9.50;80.26
75699;BME280;64313;51.018;13.742;2022-12-24T04:24:44;98696.34;;;9.50;80.49
75699;BME280;64313;51.018;13.742;2022-12-24T04:27:12;98696.72;;;9.53;79.71
75699;BME280;64313;51.018;13.742;2022-12-24T04:29:38;98700.81;;;9.56;79.70
75699;BME280;64313;51.018;13.742;2022-12-24T04:32:03;98704.28;;;9.57;79.40
75699;BME280;64313;51.018;13.742;2022-12-24T04:34:28;98715.56;;;9.59;79.34
75699;BME280;64313;51.018;13.742;2022-12-24T04:36:54;98716.16;;;9.61;78.96
75699;BME280;64313;51.018;13.742;2022-12-24T04:39:19;98723.13;;;9.62;78.45
75699;BME280;64313;51.018;13.742;2022-12-24T04:41:44;98723.72;;;9.64;78.05
75699;BME280;64313;51.018;13.742;2022-12-24T04:44:09;98735.22;;;9.64;78.16
75699;BME280;64313;51.018;13.742;2022-12-24T04:46:35;98732.94;;;9.68;77.26
75699;BME280;64313;51.018;13.742;2022-12-24T04:49:00;98728.19;;;9.70;77.68
75699;BME280;64313;51.018;13.742;2022-12-24T04:51:27;98738.66;;;9.71;77.63
75699;BME280;64313;51.018;13.742;2022-12-24T04:53:53;98741.31;;;9.71;77.82
75699;BME280;64313;51.018;13.742;2022-12-24T04:56:21;98726.91;;;9.72;77.71
75699;BME280;64313;51.018;13.742;2022-12-24T04:58:47;98735.38;;;9.69;77.52
75699;BME280;64313;51.018;13.742;2022-12-24T05:01:15;98743.97;;;9.71;77.58
75699;BME280;64313;51.018;13.742;2022-12-24T05:03:41;98751.19;;;9.71;77.72
75699;BME280;64313;51.018;13.742;2022-12-24T05:06:11;98751.63;;;9.68;77.87
75699;BME280;64313;51.018;13.742;2022-12-24T05:08:36;98752.63;;;9.67;77.94
75699;BME280;64313;51.018;13.742;2022-12-24T05:11:02;98756.34;;;9.66;78.00
75699;BME280;64313;51.018;13.742;2022-12-24T05:13:28;98771.75;;;9.64;78.15
75699;BME280;64313;51.018;13.742;2022-12-24T05:15:54;98771.94;;;9.62;78.21
75699;BME280;64313;51.018;13.742;2022-12-24T05:18:19;98774.03;;;9.60;78.49
75699;BME280;64313;51.018;13.742;2022-12-24T05:20:45;98774.84;;;9.61;78.50
75699;BME280;64313;51.018;13.742;2022-12-24T05:23:16;98785.97;;;9.58;78.33
75699;BME280;64313;51.018;13.742;2022-12-24T05:26:01;98796.41;;;9.59;78.45
75699;BME280;64313;51.018;13.742;2022-12-24T05:28:44;98802.78;;;9.58;78.59
75699;BME280;64313;51.018;13.742;2022-12-24T05:31:10;98791.50;;;9.56;78.70
75699;BME280;64313;51.018;13.742;2022-12-24T05:33:35;98793.81;;;9.52;78.20
75699;BME280;64313;51.018;13.742;2022-12-24T05:36:00;98804.47;;;9.52;78.43
75699;BME280;64313;51.018;13.742;2022-12-24T05:38:26;98802.81;;;9.51;78.07
75699;BME280;64313;51.018;13.742;2022-12-24T05:40:51;98805.72;;;9.50;78.15
75699;BME280;64313;51.018;13.742;2022-12-24T05:43:16;98806.53;;;9.50;78.26
75699;BME280;64313;51.018;13.742;2022-12-24T05:45:41;98805.31;;;9.46;78.31
75699;BME280;64313;51.018;13.742;2022-12-24T05:48:07;98806.72;;;9.49;78.01
75699;BME280;64313;51.018;13.742;2022-12-24T05:50:33;98815.16;;;9.46;78.06
75699;BME280;64313;51.018;13.742;2022-12-24T05:53:03;98827.09;;;9.43;77.75
75699;BME280;64313;51.018;13.742;2022-12-24T05:55:29;98824.41;;;9.43;77.79
75699;BME280;64313;51.018;13.742;2022-12-24T05:57:54;98818.28;;;9.43;77.39
75699;BME280;64313;51.018;13.742;2022-12-24T06:00:19;98838.19;;;9.40;77.68
75699;BME280;64313;51.018;13.742;2022-12-24T06:02:45;98829.13;;;9.41;77.79
75699;BME280;64313;51.018;13.742;2022-12-24T06:05:10;98844.34;;;9.41;77.78
75699;BME280;64313;51.018;13.742;2022-12-24T06:07:35;98849.88;;;9.39;77.63
75699;BME280;64313;51.018;13.742;2022-12-24T06:10:01;98852.75;;;9.38;77.74
75699;BME280;64313;51.018;13.742;2022-12-24T06:12:26;98862.38;;;9.39;77.75
75699;BME280;64313;51.018;13.742;2022-12-24T06:14:51;98860.78;;;9.38;77.49
75699;BME280;64313;51.018;13.742;2022-12-24T06:17:17;98876.16;;;9.36;77.63
75699;BME280;64313;51.018;13.742;2022-12-24T06:19:42;98890.75;;;9.33;77.67
75699;BME280;64313;51.018;13.742;2022-12-24T06:22:08;98880.06;;;9.33;77.60
75699;BME280;64313;51.018;13.742;2022-12-24T06:24:33;98885.00;;;9.29;78.02
75699;BME280;64313;51.018;13.742;2022-12-24T06:26:59;98881.75;;;9.27;77.69
75699;BME280;64313;51.018;13.742;2022-12-24T06:29:24;98886.22;;;9.27;77.68
75699;BME280;64313;51.018;13.742;2022-12-24T06:31:49;98898.13;;;9.24;77.41
75699;BME280;64313;51.018;13.742;2022-12-24T06:34:15;98906.56;;;9.21;77.48
75699;BME280;64313;51.018;13.742;2022-12-24T06:36:40;98904.94;;;9.20;77.61
75699;BME280;64313;51.018;13.742;2022-12-24T06:39:05;98896.53;;;9.17;78.26
75699;BME280;64313;51.018;13.742;2022-12-24T06:41:30;98903.50;;;9.18;77.13
75699;BME280;64313;51.018;13.742;2022-12-24T06:43:56;98903.09;;;9.21;77.13
75699;BME280;64313;51.018;13.742;2022-12-24T06:46:21;98898.19;;;9.18;77.07
75699;BME280;64313;51.018;13.742;2022-12-24T06:48:47;98906.19;;;9.18;75.93
75699;BME280;64313;51.018;13.742;2022-12-24T06:51:13;98913.94;;;9.19;75.39
75699;BME280;64313;51.018;13.742;2022-12-24T06:53:39;98917.47;;;9.20;75.73
75699;BME280;64313;51.018;13.742;2022-12-24T06:56:08;98925.47;;;9.20;75.52
75699;BME280;64313;51.018;13.742;2022-12-24T06:58:33;98937.13;;;9.19;75.71
75699;BME280;64313;51.018;13.742;2022-12-24T07:01:06;98927.28;;;9.19;75.63
75699;BME280;64313;51.018;13.742;2022-12-24T07:03:31;98942.88;;;9.22;75.27
75699;BME280;64313;51.018;13.742;2022-12-24T07:05:57;98946.56;;;9.21;74.48
75699;BME280;64313;51.018;13.742;2022-12-24T07:08:23;98957.84;;;9.23;75.01
75699;BME280;64313;51.018;13.742;2022-12-24T07:10:49;98955.78;;;9.25;74.37
75699;BME280;64313;51.018;13.742;2022-12-24T07:13:15;98948.81;;;9.24;73.93
75699;BME280;64313;51.018;13.742;2022-12-24T07:15:41;98951.88;;;9.28;73.62
75699;BME280;64313;51.018;13.742;2022-12-24T07:18:06;98958.66;;;9.30;72.47
75699;BME280;64313;51.018;13.742;2022-12-24T07:20:31;98973.00;;;9.29;72.65
75699;BME280;64313;51.018;13.742;2022-12-24T07:22:57;98972.19;;;9.29;72.67
75699;BME280;64313;51.018;13.742;2022-12-24T07:25:22;98988.78;;;9.31;72.42
75699;BME280;64313;51.018;13.742;2022-12-24T07:27:47;98986.94;;;9.31;71.37
75699;BME280;64313;51.018;13.742;2022-12-24T07:30:15;98990.22;;;9.34;71.98
75699;BME280;64313;51.018;13.742;2022-12-24T07:32:40;98989.59;;;9.31;72.41
75699;BME280;64313;51.018;13.742;2022-12-24T07:35:06;98991.47;;;9.31;71.15
75699;BME280;64313;51.018;13.742;2022-12-24T07:37:31;99006.41;;;9.32;71.26
75699;BME280;64313;51.018;13.742;2022-12-24T07:39:57;98994.13;;;9.31;71.06
75699;BME280;64313;51.018;13.742;2022-12-24T07:42:22;99001.09;;;9.32;70.90
75699;BME280;64313;51.018;13.742;2022-12-24T07:44:48;98996.78;;;9.31;71.37
75699;BME280;64313;51.018;13.742;2022-12-24T07:47:13;99019.16;;;9.30;71.20
75699;BME280;64313;51.018;13.742;2022-12-24T07:49:39;99021.00;;;9.29;71.02
75699;BME280;64313;51.018;13.742;2022-12-24T07:52:04;99013.00;;;9.29;70.98
75699;BME280;64313;51.018;13.742;2022-12-24T07:54:30;99019.38;;;9.28;71.28
75699;BME280;64313;51.018;13.742;2022-12-24T07:56:55;99025.75;;;9.27;71.23
75699;BME280;64313;51.018;13.742;2022-12-24T07:59:20;99021.22;;;9.28;70.83
75699;BME280;64313;51.018;13.742;2022-12-24T08:01:46;99024.69;;;9.28;71.81
75699;BME280;64313;51.018;13.742;2022-12-24T08:04:11;99028.00;;;9.30;71.99
75699;BME280;64313;51.018;13.742;2022-12-24T08:06:36;99042.13;;;9.31;72.07
75699;BME280;64313;51.018;13.742;2022-12-24T08:09:02;99047.66;;;9.29;72.26
75699;BME280;64313;51.018;13.742;2022-12-24T08:11:28;99051.75;;;9.32;72.52
75699;BME280;64313;51.018;13.742;2022-12-24T08:13:53;99051.56;;;9.34;72.80
75699;BME280;64313;51.018;13.742;2022-12-24T08:16:18;99053.00;;;9.29;72.79
75699;BME280;64313;51.018;13.742;2022-12-24T08:18:44;99061.22;;;9.28;73.27
75699;BME280;64313;51.018;13.742;2022-12-24T08:21:09;99069.00;;;9.29;73.39
75699;BME280;64313;51.018;13.742;2022-12-24T08:23:35;99064.69;;;9.28;73.72
75699;BME280;64313;51.018;13.742;2022-12-24T08:26:00;99073.31;;;9.30;73.51
75699;BME280;64313;51.018;13.742;2022-12-24T08:28:26;99074.94;;;9.31;73.58
75699;BME280;64313;51.018;13.742;2022-12-24T08:30:51;99073.31;;;9.30;73.72
75699;BME280;64313;51.018;13.742;2022-12-24T08:33:17;99069.63;;;9.31;73.20
75699;BME280;64313;51.018;13.742;2022-12-24T08:35:47;99071.47;;;9.31;73.32
75699;BME280;64313;51.018;13.742;2022-12-24T08:38:13;99080.91;;;9.34;72.88
75699;BME280;64313;51.018;13.742;2022-12-24T08:40:38;99092.63;;;9.32;72.64
75699;BME280;64313;51.018;13.742;2022-12-24T08:43:03;99088.09;;;9.33;72.51
75699;BME280;64313;51.018;13.742;2022-12-24T08:45:29;99101.00;;;9.36;72.86
75699;BME280;64313;51.018;13.742;2022-12-24T08:47:54;99113.53;;;9.36;72.11
75699;BME280;64313;51.018;13.742;2022-12-24T08:50:19;99113.72;;;9.41;72.40
75699;BME280;64313;51.018;13.742;2022-12-24T08:52:45;99115.34;;;9.42;72.67
75699;BME280;64313;51.018;13.742;2022-12-24T08:55:10;99119.06;;;9.41;72.48
75699;BME280;64313;51.018;13.742;2022-12-24T08:57:36;99129.75;;;9.41;72.83
75699;BME280;64313;51.018;13.742;2022-12-24T09:00:03;99124.41;;;9.41;72.80
75699;BME280;64313;51.018;13.742;2022-12-24T09:02:29;99134.03;;;9.42;72.60
75699;BME280;64313;51.018;13.742;2022-12-24T09:04:54;99136.91;;;9.47;71.96
75699;BME280;64313;51.018;13.742;2022-12-24T09:07:20;99145.53;;;9.49;71.79
75699;BME280;64313;51.018;13.742;2022-12-24T09:09:45;99146.34;;;9.49;71.52
75699;BME280;64313;51.018;13.742;2022-12-24T09:12:11;99144.50;;;9.50;71.49
75699;BME280;64313;51.018;13.742;2022-12-24T09:14:36;99152.09;;;9.53;70.68
75699;BME280;64313;51.018;13.742;2022-12-24T09:17:01;99161.13;;;9.59;71.07
75699;BME280;64313;51.018;13.742;2022-12-24T09:19:27;99159.88;;;9.61;70.16
75699;BME280;64313;51.018;13.742;2022-12-24T09:21:53;99156.78;;;9.64;69.63
75699;BME280;64313;51.018;13.742;2022-12-24T09:24:18;99162.13;;;9.64;69.67
75699;BME280;64313;51.018;13.742;2022-12-24T09:26:44;99171.38;;;9.68;70.08
75699;BME280;64313;51.018;13.742;2022-12-24T09:29:14;99165.00;;;9.69;69.66
75699;BME280;64313;51.018;13.742;2022-12-24T09:31:40;99179.16;;;9.70;68.89
75699;BME280;64313;51.018;13.742;2022-12-24T09:34:05;99179.59;;;9.73;69.03
75699;BME280;64313;51.018;13.742;2022-12-24T09:36:31;99183.69;;;9.76;68.82
75699;BME280;64313;51.018;13.742;2022-12-24T09:38:57;99185.13;;;9.79;69.23
75699;BME280;64313;51.018;13.742;2022-12-24T09:41:37;99193.94;;;9.79;68.88
75699;BME280;64313;51.018;13.742;2022-12-24T09:46:52;99199.06;;;9.94;69.11
75699;BME280;64313;51.018;13.742;2022-12-24T09:49:21;99204.59;;;9.99;69.30
75699;BME280;64313;51.018;13.742;2022-12-24T09:51:58;99202.75;;;10.06;68.80
75699;BME280;64313;51.018;13.742;2022-12-24T09:54:31;99219.56;;;10.13;68.47
75699;BME280;64313;51.018;13.742;2022-12-24T09:57:04;99216.06;;;10.19;68.69
75699;BME280;64313;51.018;13.742;2022-12-24T09:59:38;99219.16;;;10.23;68.41
75699;BME280;64313;51.018;13.742;2022-12-24T10:02:09;99223.88;;;10.28;68.31
75699;BME280;64313;51.018;13.742;2022-12-24T10:04:35;99221.38;;;10.33;67.22
75699;BME280;64313;51.018;13.742;2022-12-24T10:10:17;99229.59;;;10.38;67.56
75699;BME280;64313;51.018;13.742;2022-12-24T10:15:33;99230.00;;;10.42;67.67
75699;BME280;64313;51.018;13.742;2022-12-24T10:20:57;99242.31;;;10.43;66.89
75699;BME280;64313;51.018;13.742;2022-12-24T10:23:33;99245.41;;;10.46;67.13
75699;BME280;64313;51.018;13.742;2022-12-24T10:26:11;99262.25;;;10.47;66.92
75699;BME280;64313;51.018;13.742;2022-12-24T10:28:55;99268.41;;;10.47;67.69
75699;BME280;64313;51.018;13.742;2022-12-24T10:31:28;99260.41;;;10.47;67.44
75699;BME280;64313;51.018;13.742;2022-12-24T10:33:59;99255.06;;;10.47;67.70
75699;BME280;64313;51.018;13.742;2022-12-24T10:36:29;99263.06;;;10.47;67.67
75699;BME280;64313;51.018;13.742;2022-12-24T10:38:55;99262.06;;;10.48;67.74
75699;BME280;64313;51.018;13.742;2022-12-24T10:41:22;99264.50;;;10.50;67.82
75699;BME280;64313;51.018;13.742;2022-12-24T10:43:49;99258.75;;;10.53;67.73
75699;BME280;64313;51.018;13.742;2022-12-24T10:46:22;99270.47;;;10.52;67.52
75699;BME280;64313;51.018;13.742;2022-12-24T10:48:52;99266.97;;;10.51;67.52
75699;BME280;64313;51.018;13.742;2022-12-24T10:51:41;99269.03;;;10.49;67.39
75699;BME280;64313;51.018;13.742;2022-12-24T10:54:23;99258.78;;;10.46;67.58
75699;BME280;64313;51.018;13.742;2022-12-24T10:56:50;99277.06;;;10.43;67.72
75699;BME280;64313;51.018;13.742;2022-12-24T10:59:27;99275.63;;;10.40;67.66
75699;BME280;64313;51.018;13.742;2022-12-24T11:01:55;99272.34;;;10.38;67.60
75699;BME280;64313;51.018;13.742;2022-12-24T11:04:27;99274.41;;;10.36;67.77
75699;BME280;64313;51.018;13.742;2022-12-24T11:07:11;99286.75;;;10.37;67.89
75699;BME280;64313;51.018;13.742;2022-12-24T11:09:59;99290.44;;;10.36;67.74
75699;BME280;64313;51.018;13.742;2022-12-24T11:12:33;99285.31;;;10.34;68.52
75699;BME280;64313;51.018;13.742;2022-12-24T11:15:30;99294.56;;;10.32;68.71
75699;BME280;64313;51.018;13.742;2022-12-24T11:18:04;99296.59;;;10.30;69.38
75699;BME280;64313;51.018;13.742;2022-12-24T11:20:33;99287.13;;;10.27;69.05
75699;BME280;64313;51.018;13.742;2022-12-24T11:22:59;99297.66;;;10.29;68.68
75699;BME280;64313;51.018;13.742;2022-12-24T11:25:28;99296.38;;;10.25;69.32
75699;BME280;64313;51.018;13.742;2022-12-24T11:28:10;99305.22;;;10.25;69.54
75699;BME280;64313;51.018;13.742;2022-12-24T11:30:36;99306.44;;;10.23;69.37
75699;BME280;64313;51.018;13.742;2022-12-24T11:35:30;99310.97;;;10.22;70.34
75699;BME280;64313;51.018;13.742;2022-12-24T11:40:34;99316.94;;;10.17;70.94
75699;BME280;64313;51.018;13.742;2022-12-24T11:43:00;99311.81;;;10.16;71.43
75699;BME280;64313;51.018;13.742;2022-12-24T11:45:30;99324.53;;;10.14;71.57
75699;BME280;64313;51.018;13.742;2022-12-24T11:47:58;99324.13;;;10.10;72.16
75699;BME280;64313;51.018;13.742;2022-12-24T11:50:31;99341.00;;;10.11;71.71
75699;BME280;64313;51.018;13.742;2022-12-24T11:55:47;99332.34;;;10.09;72.15
75699;BME280;64313;51.018;13.742;2022-12-24T11:58:40;99341.38;;;10.08;72.06
75699;BME280;64313;51.018;13.742;2022-12-24T12:01:22;99352.06;;;10.08;72.10
75699;BME280;64313;51.018;13.742;2022-12-24T12:03:56;99359.25;;;10.07;72.15
75699;BME280;64313;51.018;13.742;2022-12-24T12:06:46;99348.56;;;10.07;72.28
75699;BME280;64313;51.018;13.742;2022-12-24T12:09:22;99351.84;;;10.09;72.55
75699;BME280;64313;51.018;13.742;2022-12-24T12:11:52;99352.47;;;10.11;72.34
75699;BME280;64313;51.018;13.742;2022-12-24T12:14:26;99353.50;;;10.10;72.02
75699;BME280;64313;51.018;13.742;2022-12-24T12:17:05;99354.94;;;10.13;71.79
75699;BME280;64313;51.018;13.742;2022-12-24T12:19:42;99353.72;;;10.15;72.03
75699;BME280;64313;51.018;13.742;2022-12-24T12:22:33;99359.06;;;10.15;71.74
75699;BME280;64313;51.018;13.742;2022-12-24T12:25:01;99356.41;;;10.15;71.98
75699;BME280;64313;51.018;13.742;2022-12-24T12:27:39;99365.22;;;10.16;72.10
75699;BME280;64313;51.018;13.742;2022-12-24T12:30:17;99361.75;;;10.15;72.16
75699;BME280;64313;51.018;13.742;2022-12-24T12:35:35;99352.88;;;10.15;71.85
75699;BME280;64313;51.018;13.742;2022-12-24T12:38:11;99367.91;;;10.16;72.07
75699;BME280;64313;51.018;13.742;2022-12-24T12:40:51;99366.03;;;10.16;72.24
75699;BME280;64313;51.018;13.742;2022-12-24T12:43:56;99362.34;;;10.17;72.73
75699;BME280;64313;51.018;13.742;2022-12-24T12:49:34;99376.91;;;10.15;73.07
75699;BME280;64313;51.018;13.742;2022-12-24T12:52:11;99373.44;;;10.14;73.16
75699;BME280;64313;51.018;13.742;2022-12-24T12:57:41;99373.84;;;10.11;73.09
75699;BME280;64313;51.018;13.742;2022-12-24T13:00:14;99366.66;;;10.12;73.26
75699;BME280;64313;51.018;13.742;2022-12-24T13:03:11;99369.94;;;10.14;73.28
75699;BME280;64313;51.018;13.742;2022-12-24T13:06:16;99362.13;;;10.12;73.12
75699;BME280;64313;51.018;13.742;2022-12-24T13:09:02;99359.47;;;10.12;73.48
75699;BME280;64313;51.018;13.742;2022-12-24T13:12:02;99367.09;;;10.15;73.02
75699;BME280;64313;51.018;13.742;2022-12-24T13:14:43;99366.66;;;10.18;72.96
75699;BME280;64313;51.018;13.742;2022-12-24T13:17:37;99375.06;;;10.22;72.66
75699;BME280;64313;51.018;13.742;2022-12-24T13:20:20;99369.34;;;10.32;72.66
75699;BME280;64313;51.018;13.742;2022-12-24T13:22:50;99381.69;;;10.46;72.61
75699;BME280;64313;51.018;13.742;2022-12-24T13:25:25;99379.63;;;10.61;72.48
75699;BME280;64313;51.018;13.742;2022-12-24T13:27:51;99378.34;;;10.77;71.13
75699;BME280;64313;51.018;13.742;2022-12-24T13:30:37;99372.38;;;10.82;71.39
75699;BME280;64313;51.018;13.742;2022-12-24T13:33:03;99374.44;;;10.87;71.03
75699;BME280;64313;51.018;13.742;2022-12-24T13:35:33;99379.53;;;11.01;70.75
75699;BME280;64313;51.018;13.742;2022-12-24T13:40:49;99384.22;;;11.06;69.53
75699;BME280;64313;51.018;13.742;2022-12-24T13:43:14;99379.09;;;11.04;69.51
75699;BME280;64313;51.018;13.742;2022-12-24T13:45:41;99386.94;;;10.99;69.29
75699;BME280;64313;51.018;13.742;2022-12-24T13:50:44;99384.09;;;10.94;69.94
75699;BME280;64313;51.018;13.742;2022-12-24T13:53:27;99383.06;;;10.89;69.76
75699;BME280;64313;51.018;13.742;2022-12-24T13:58:35;99383.88;;;10.82;69.70
75699;BME280;64313;51.018;13.742;2022-12-24T14:01:05;99396.63;;;10.80;69.81
75699;BME280;64313;51.018;13.742;2022-12-24T14:03:45;99393.16;;;10.80;70.07
75699;BME280;64313;51.018;13.742;2022-12-24T14:06:26;99387.00;;;10.73;70.05